Time;durP1;ratioP1;P1;durP2;ratioP2;P2;SDS_P1;SDS_P2;PMS_P1;PMS_P2;Temp;Humidity;BMP_temperature;BMP_pressure;BME280_temperature;BME280_humidity;BME280_pressure;Samples;Min_cycle;Max_cycle;Signal;HPM_P1;HPM_P2
2023/10/24 00:01:43;;;;;;;0.10;0.10;;;;;;;16.70;50.28;101237.94;4971502;28;20500;-82
2023/10/24 00:04:09;;;;;;;0.33;0.33;;;;;;;16.58;50.68;101229.63;4971716;28;20427;-83
2023/10/24 00:06:35;;;;;;;0.23;0.23;;;;;;;16.50;50.88;101235.97;4971224;28;20783;-82
2023/10/24 00:09:03;;;;;;;0.20;0.20;;;;;;;16.40;51.14;101230.13;4971307;28;20395;-82
2023/10/24 00:11:28;;;;;;;0.20;0.20;;;;;;;16.50;50.82;101230.59;4972364;28;20388;-82
2023/10/24 00:13:54;;;;;;;0.30;0.30;;;;;;;16.70;50.09;101230.72;4972241;28;20387;-82
2023/10/24 00:16:19;;;;;;;0.17;0.17;;;;;;;16.85;49.79;101225.25;4971144;28;20391;-82
2023/10/24 00:18:48;;;;;;;0.10;0.10;;;;;;;16.94;49.25;101228.59;4972428;28;20422;-83
2023/10/24 00:21:13;;;;;;;0.10;0.10;;;;;;;16.89;49.33;101228.34;4971027;28;20513;-82
2023/10/24 00:23:39;;;;;;;0.10;0.10;;;;;;;16.71;49.41;101229.72;4972675;28;20890;-82
2023/10/24 00:26:04;;;;;;;0.20;0.20;;;;;;;16.52;50.29;101217.84;4970937;28;20936;-82
2023/10/24 00:28:30;;;;;;;0.10;0.10;;;;;;;16.40;50.80;101220.25;4970806;28;20396;-81
2023/10/24 00:30:55;;;;;;;0.10;0.10;;;;;;;16.44;50.65;101224.19;4972130;28;20394;-82
2023/10/24 00:33:21;;;;;;;0.30;0.30;;;;;;;16.46;50.55;101224.00;4970486;28;20405;-82
2023/10/24 00:35:48;;;;;;;0.10;0.10;;;;;;;16.44;50.60;101221.53;4970837;28;20501;-81
2023/10/24 00:38:14;;;;;;;0.10;0.10;;;;;;;16.52;50.21;101214.34;4971131;28;20396;-82
2023/10/24 00:40:39;;;;;;;0.10;0.10;;;;;;;16.63;49.70;101211.94;4970918;28;20390;-82
2023/10/24 00:43:07;;;;;;;0.10;0.10;;;;;;;16.74;49.23;101213.22;4970887;28;20813;-85
2023/10/24 00:45:34;;;;;;;0.20;0.20;;;;;;;16.78;49.06;101210.97;4970455;28;20420;-83
2023/10/24 00:48:03;;;;;;;0.10;0.10;;;;;;;16.69;49.21;101210.34;4970826;28;20780;-83
2023/10/24 00:50:28;;;;;;;0.30;0.30;;;;;;;16.59;49.27;101210.69;4971932;28;20391;-83
2023/10/24 00:52:55;;;;;;;0.10;0.10;;;;;;;16.60;49.26;101203.47;4970332;28;20794;-82
2023/10/24 00:55:21;;;;;;;0.30;0.30;;;;;;;16.63;49.03;101201.22;4970677;28;20391;-82
2023/10/24 00:57:49;;;;;;;0.20;0.20;;;;;;;16.68;48.96;101203.31;4954496;28;20478;-82
2023/10/24 01:00:15;;;;;;;0.10;0.10;;;;;;;16.69;48.80;101199.63;4954841;28;20814;-83
2023/10/24 01:02:41;;;;;;;0.10;0.10;;;;;;;16.68;48.79;101202.50;4970548;28;20462;-82
2023/10/24 01:05:08;;;;;;;0.10;0.10;;;;;;;16.65;48.76;101198.34;4972157;28;20403;-82
2023/10/24 01:07:34;;;;;;;0.20;0.20;;;;;;;16.62;48.86;101193.41;4970730;28;20782;-82
2023/10/24 01:10:00;;;;;;;0.60;0.60;;;;;;;16.54;49.25;101198.94;4971585;28;20410;-82
2023/10/24 01:12:26;;;;;;;0.20;0.20;;;;;;;16.38;49.71;101189.34;4977441;28;20577;-81
2023/10/24 01:14:52;;;;;;;0.10;0.10;;;;;;;16.19;50.68;101197.06;4977068;28;20411;-81
2023/10/24 01:17:18;;;;;;;0.13;0.13;;;;;;;15.98;51.29;101200.59;4973221;28;20383;-81
2023/10/24 01:19:44;;;;;;;0.40;0.40;;;;;;;15.90;51.26;101195.41;4972428;28;20748;-82
2023/10/24 01:22:09;;;;;;;0.10;0.10;;;;;;;15.86;51.21;101191.44;4970730;28;20395;-82
2023/10/24 01:24:35;;;;;;;0.43;0.43;;;;;;;15.85;51.06;101193.31;4970846;28;20403;-82
2023/10/24 01:27:01;;;;;;;0.30;0.30;;;;;;;15.88;51.31;101196.59;4970485;28;20407;-82
2023/10/24 01:29:26;;;;;;;0.10;0.10;;;;;;;15.88;51.25;101199.28;4971898;28;20543;-82
2023/10/24 01:31:52;;;;;;;0.00;0.00;;;;;;;15.73;51.47;101194.81;4971266;28;20829;-82
2023/10/24 01:34:18;;;;;;;0.10;0.10;;;;;;;15.66;51.80;101197.44;4979714;28;20431;-82
2023/10/24 01:36:43;;;;;;;0.90;0.90;;;;;;;15.52;52.07;101201.00;4971536;28;20402;-82
2023/10/24 01:39:11;;;;;;;1.40;0.30;;;;;;;15.37;52.74;101203.72;4970569;28;20388;-83
2023/10/24 01:41:36;;;;;;;0.10;0.10;;;;;;;15.29;52.72;101201.19;4971898;28;20390;-82
2023/10/24 01:44:04;;;;;;;0.10;0.10;;;;;;;15.16;52.89;101203.69;4972041;28;20388;-83
2023/10/24 01:46:30;;;;;;;0.05;0.05;;;;;;;15.10;53.50;101206.09;4971515;28;21112;-83
2023/10/24 01:49:00;;;;;;;0.10;0.10;;;;;;;14.96;53.56;101200.78;4974199;28;20435;-83
2023/10/24 01:51:27;;;;;;;0.15;0.15;;;;;;;15.02;53.18;101210.75;4975360;28;20763;-83
2023/10/24 01:53:53;;;;;;;0.10;0.10;;;;;;;15.09;53.34;101220.47;4973989;28;20407;-82
2023/10/24 01:56:18;;;;;;;0.10;0.10;;;;;;;15.29;52.43;101203.84;4975358;28;20383;-82
2023/10/24 01:58:44;;;;;;;0.25;0.25;;;;;;;15.48;51.79;101200.56;4975168;28;20391;-82
2023/10/24 02:01:10;;;;;;;0.00;0.00;;;;;;;15.47;51.63;101196.22;4975113;28;20388;-83
2023/10/24 02:03:35;;;;;;;0.20;0.20;;;;;;;15.53;51.62;101194.63;4977113;28;20419;-83
2023/10/24 02:06:01;;;;;;;0.10;0.10;;;;;;;15.71;51.13;101191.50;4975257;28;20411;-82
2023/10/24 02:08:27;;;;;;;0.05;0.05;;;;;;;15.81;50.59;101194.72;4957912;28;20397;-83
2023/10/24 02:10:55;;;;;;;0.00;0.00;;;;;;;15.92;50.26;101196.03;4974852;28;20478;-83
2023/10/24 02:13:21;;;;;;;0.10;0.10;;;;;;;15.94;50.17;101193.19;4973605;28;20812;-83
2023/10/24 02:15:46;;;;;;;0.07;0.07;;;;;;;15.95;50.11;101206.34;4973621;28;20886;-83
2023/10/24 02:18:12;;;;;;;0.10;0.10;;;;;;;15.78;50.56;101197.78;4974802;28;20454;-83
2023/10/24 02:20:38;;;;;;;0.20;0.20;;;;;;;15.67;51.41;101203.59;4973552;28;20388;-83
2023/10/24 02:23:03;;;;;;;0.20;0.20;;;;;;;15.62;51.48;101198.81;4973788;28;20426;-83
2023/10/24 02:25:29;;;;;;;0.20;0.20;;;;;;;15.67;51.55;101196.41;4974280;28;20490;-83
2023/10/24 02:27:55;;;;;;;0.10;0.10;;;;;;;15.81;51.10;101205.41;4973054;28;20910;-83
2023/10/24 02:30:22;;;;;;;0.10;0.10;;;;;;;15.82;51.10;101208.91;4974294;28;20401;-84
2023/10/24 02:32:49;;;;;;;0.53;0.53;;;;;;;15.67;51.76;101201.75;4973323;28;20387;-82
2023/10/24 02:35:15;;;;;;;0.17;0.17;;;;;;;15.48;52.82;101202.38;4972514;28;20477;-82
2023/10/24 02:37:40;;;;;;;0.10;0.10;;;;;;;15.44;52.81;101209.13;4972973;28;20379;-83
2023/10/24 02:40:08;;;;;;;0.10;0.10;;;;;;;15.35;52.94;101211.09;4971108;28;20795;-83
2023/10/24 02:42:34;;;;;;;0.10;0.10;;;;;;;15.48;52.67;101213.94;4970344;28;20477;-85
2023/10/24 02:44:59;;;;;;;2.00;1.80;;;;;;;15.44;52.69;101215.28;4970818;28;20910;-85
2023/10/24 02:47:25;;;;;;;0.20;0.20;;;;;;;15.39;52.83;101215.03;4972968;28;20473;-85
2023/10/24 02:49:51;;;;;;;0.20;0.20;;;;;;;15.45;52.73;101219.63;4972191;28;20774;-86
2023/10/24 02:52:20;;;;;;;0.10;0.10;;;;;;;15.47;52.61;101216.78;4971572;28;20839;-86
2023/10/24 02:54:47;;;;;;;0.10;0.10;;;;;;;15.47;52.78;101224.78;4968746;28;20395;-84
2023/10/24 02:57:12;;;;;;;0.10;0.10;;;;;;;15.41;52.96;101221.03;4971471;28;20435;-84
2023/10/24 02:59:38;;;;;;;0.38;0.38;;;;;;;15.20;53.87;101213.81;4972367;28;20387;-84
2023/10/24 03:02:04;;;;;;;0.10;0.10;;;;;;;15.09;54.68;101212.47;4971533;28;20396;-84
2023/10/24 03:04:30;;;;;;;0.30;0.20;;;;;;;15.03;54.55;101218.53;4971868;28;20473;-84
2023/10/24 03:06:58;;;;;;;0.30;0.30;;;;;;;15.12;54.69;101234.47;4973012;28;20477;-84
2023/10/24 03:09:25;;;;;;;0.40;0.40;;;;;;;15.13;54.75;101228.13;4971784;28;20399;-83
2023/10/24 03:11:52;;;;;;;17.00;1.10;;;;;;;15.17;55.01;101240.88;4970900;28;20802;-82
2023/10/24 03:14:17;;;;;;;0.60;0.40;;;;;;;14.98;55.51;101241.47;4970843;28;20462;-83
2023/10/24 03:16:43;;;;;;;0.10;0.10;;;;;;;14.89;55.78;101243.41;4971611;28;20407;-82
2023/10/24 03:19:09;;;;;;;0.40;0.30;;;;;;;14.81;55.63;101255.00;4970776;28;20399;-82
2023/10/24 03:21:34;;;;;;;0.10;0.10;;;;;;;14.78;55.39;101255.38;4970711;28;20482;-84
2023/10/24 03:24:00;;;;;;;0.03;0.03;;;;;;;14.80;55.30;101256.03;4957749;28;20519;-82
2023/10/24 03:26:25;;;;;;;0.20;0.20;;;;;;;14.80;55.09;101263.19;4954196;29;20451;-84
2023/10/24 03:28:51;;;;;;;1.50;0.70;;;;;;;14.68;55.06;101261.00;4960512;28;20419;-82
2023/10/24 03:31:17;;;;;;;0.17;0.17;;;;;;;14.81;54.38;101259.53;4974958;28;20431;-83
2023/10/24 03:33:42;;;;;;;0.03;0.03;;;;;;;14.85;54.56;101269.63;4974095;28;20444;-82
2023/10/24 03:36:13;;;;;;;0.00;0.00;;;;;;;14.78;54.38;101267.91;4971184;28;20428;-83
2023/10/24 03:38:39;;;;;;;0.10;0.10;;;;;;;14.72;54.29;101264.94;4968588;28;20468;-82
2023/10/24 03:41:06;;;;;;;0.47;0.47;;;;;;;14.62;54.78;101261.75;4968436;28;20404;-82
2023/10/24 03:43:33;;;;;;;0.10;0.10;;;;;;;14.68;54.35;101263.66;4955210;28;20407;-82
2023/10/24 03:46:01;;;;;;;0.10;0.10;;;;;;;14.81;53.84;101272.88;4963253;28;20462;-82
2023/10/24 03:48:29;;;;;;;0.10;0.10;;;;;;;14.84;53.72;101276.00;4972959;28;20462;-82
2023/10/24 03:50:54;;;;;;;0.10;0.10;;;;;;;14.79;53.73;101272.25;4970381;28;20922;-81
2023/10/24 03:53:20;;;;;;;0.10;0.10;;;;;;;14.82;53.77;101275.38;4953496;28;20400;-81
2023/10/24 03:56:00;;;;;;;0.15;0.15;;;;;;;14.78;53.58;101271.38;4953311;28;20403;-81
2023/10/24 03:58:26;;;;;;;0.08;0.08;;;;;;;14.87;53.48;101285.47;4953191;28;20422;-82
2023/10/24 04:00:53;;;;;;;0.05;0.05;;;;;;;14.86;53.66;101279.31;4952762;28;20458;-82
2023/10/24 04:03:21;;;;;;;0.10;0.10;;;;;;;14.96;53.36;101287.03;4970260;28;20870;-82
2023/10/24 04:05:46;;;;;;;0.03;0.03;;;;;;;15.08;52.67;101274.06;4953733;28;20497;-82
2023/10/24 04:08:12;;;;;;;0.10;0.10;;;;;;;15.19;52.16;101272.75;4952707;28;20482;-82
2023/10/24 04:10:38;;;;;;;0.10;0.10;;;;;;;15.27;52.00;101262.78;4967947;28;20782;-82
2023/10/24 04:13:05;;;;;;;0.10;0.10;;;;;;;15.30;52.06;101242.88;4969664;28;20398;-83
2023/10/24 04:15:31;;;;;;;0.10;0.10;;;;;;;15.38;51.75;101252.66;4955787;28;20831;-83
2023/10/24 04:18:02;;;;;;;0.10;0.10;;;;;;;15.35;51.36;101245.81;4957598;28;20405;-83
2023/10/24 04:20:31;;;;;;;0.10;0.10;;;;;;;15.40;51.45;101250.63;4956371;28;20408;-84
2023/10/24 04:23:01;;;;;;;1.00;0.70;;;;;;;15.36;51.51;101249.31;4970883;28;20403;-82
2023/10/24 04:25:29;;;;;;;0.10;0.10;;;;;;;15.36;51.64;101265.34;4953855;28;20431;-82
2023/10/24 04:27:54;;;;;;;0.20;0.20;;;;;;;15.41;51.35;101270.94;4960065;28;20435;-81
2023/10/24 04:30:20;;;;;;;0.10;0.10;;;;;;;15.39;51.22;101264.97;4968390;28;20518;-80
2023/10/24 04:32:45;;;;;;;0.10;0.10;;;;;;;15.44;51.21;101267.91;4969853;28;20415;-81
2023/10/24 04:35:11;;;;;;;0.10;0.10;;;;;;;15.39;51.05;101248.94;4970542;28;20407;-82
2023/10/24 04:37:39;;;;;;;0.20;0.20;;;;;;;15.45;50.95;101254.38;4954514;28;20403;-80
2023/10/24 04:40:07;;;;;;;0.20;0.20;;;;;;;15.50;50.92;101251.13;4986988;28;20478;-81
2023/10/24 04:42:32;;;;;;;0.17;0.17;;;;;;;15.47;50.90;101238.97;4968121;28;20418;-79
2023/10/24 04:44:58;;;;;;;0.13;0.13;;;;;;;15.52;50.91;101261.63;4983318;28;20416;-80
2023/10/24 04:47:26;;;;;;;0.30;0.30;;;;;;;15.53;50.88;101256.09;4970328;28;20391;-81
2023/10/24 04:49:52;;;;;;;0.03;0.03;;;;;;;15.49;50.83;101254.81;4971707;28;20391;-81
2023/10/24 04:52:17;;;;;;;0.10;0.10;;;;;;;15.53;50.82;101252.59;4970525;28;20380;-82
2023/10/24 04:54:44;;;;;;;0.10;0.10;;;;;;;15.51;51.13;101252.78;4971515;28;20835;-79
2023/10/24 04:57:09;;;;;;;0.08;0.08;;;;;;;15.52;50.89;101257.13;4972450;28;20426;-79
2023/10/24 04:59:37;;;;;;;0.10;0.10;;;;;;;15.49;51.00;101255.63;4971276;28;20424;-81
2023/10/24 05:02:03;;;;;;;0.20;0.20;;;;;;;15.54;51.24;101271.13;4972119;28;20387;-82
2023/10/24 05:04:29;;;;;;;0.10;0.10;;;;;;;15.53;50.95;101272.13;4972776;28;20454;-81
2023/10/24 05:06:55;;;;;;;0.10;0.10;;;;;;;15.51;51.63;101271.50;4970453;28;20407;-80
2023/10/24 05:09:21;;;;;;;0.10;0.10;;;;;;;15.55;51.44;101279.94;4972165;28;20383;-81
2023/10/24 05:11:48;;;;;;;0.08;0.08;;;;;;;15.58;51.44;101282.25;4971695;28;20395;-81
2023/10/24 05:14:13;;;;;;;0.10;0.10;;;;;;;15.60;51.15;101286.38;4970886;28;20388;-80
2023/10/24 05:16:44;;;;;;;0.10;0.10;;;;;;;15.62;51.53;101289.69;4986849;28;20407;-80
2023/10/24 05:19:09;;;;;;;0.50;0.50;;;;;;;15.66;51.23;101287.47;4972277;28;20387;-80
2023/10/24 05:21:35;;;;;;;0.10;0.10;;;;;;;15.70;51.29;101291.44;4972914;28;20406;-81
2023/10/24 05:24:03;;;;;;;0.10;0.10;;;;;;;15.60;51.73;101282.88;4975338;28;20395;-82
2023/10/24 05:26:29;;;;;;;0.70;0.70;;;;;;;15.57;52.26;101308.13;4976433;28;20418;-81
2023/10/24 05:28:57;;;;;;;0.10;0.10;;;;;;;15.52;52.44;101299.03;4979739;28;20391;-83
2023/10/24 05:31:23;;;;;;;0.90;0.50;;;;;;;15.54;52.47;101292.50;4979549;28;20398;-82
2023/10/24 05:33:52;;;;;;;0.00;0.00;;;;;;;15.58;52.64;101301.78;4977552;28;20399;-81
2023/10/24 05:36:18;;;;;;;0.10;0.10;;;;;;;15.62;52.41;101303.06;4977749;28;20410;-80
2023/10/24 05:38:44;;;;;;;0.03;0.03;;;;;;;15.72;52.23;101304.59;4975001;28;20388;-81
2023/10/24 05:41:14;;;;;;;0.10;0.10;;;;;;;15.75;52.18;101306.91;4991489;28;20482;-81
2023/10/24 05:43:42;;;;;;;0.28;0.28;;;;;;;15.77;52.16;101318.25;4975412;28;20503;-81
2023/10/24 05:46:08;;;;;;;0.50;0.50;;;;;;;15.68;52.94;101322.84;4991167;28;20423;-81
2023/10/24 05:48:35;;;;;;;0.10;0.10;;;;;;;15.60;52.83;101318.44;4976067;28;20383;-80
2023/10/24 05:51:01;;;;;;;0.10;0.10;;;;;;;15.54;52.77;101319.22;4975032;28;20399;-81
2023/10/24 05:53:26;;;;;;;0.20;0.20;;;;;;;15.60;52.43;101318.44;4991563;28;20403;-81
2023/10/24 05:55:52;;;;;;;0.30;0.30;;;;;;;15.63;52.50;101318.09;4975820;28;20931;-81
2023/10/24 05:58:21;;;;;;;0.40;0.40;;;;;;;15.67;52.71;101322.03;4976235;28;20391;-81
2023/10/24 06:00:52;;;;;;;0.20;0.20;;;;;;;15.67;52.45;101318.53;4990758;28;20406;-79
2023/10/24 06:03:18;;;;;;;0.20;0.20;;;;;;;15.67;52.40;101321.22;4975955;28;20399;-79
2023/10/24 06:05:44;;;;;;;0.10;0.10;;;;;;;15.71;52.32;101310.97;4974568;28;20407;-82
2023/10/24 06:08:10;;;;;;;0.10;0.10;;;;;;;15.84;52.29;101319.16;4974570;28;20390;-81
2023/10/24 06:10:35;;;;;;;0.20;0.20;;;;;;;15.87;52.03;101313.44;4990790;28;20735;-82
2023/10/24 06:13:03;;;;;;;0.20;0.20;;;;;;;15.99;52.05;101330.63;4975146;28;20403;-81
2023/10/24 06:15:28;;;;;;;0.10;0.10;;;;;;;16.01;52.09;101327.75;4976502;28;20404;-80
2023/10/24 06:17:57;;;;;;;0.30;0.30;;;;;;;16.07;52.08;101328.84;4990573;28;20395;-81
2023/10/24 06:20:22;;;;;;;0.20;0.20;;;;;;;16.20;52.08;101324.41;4984307;28;20441;-80
2023/10/24 06:22:50;;;;;;;0.10;0.10;;;;;;;16.23;52.18;101325.91;4967710;28;20541;-80
2023/10/24 06:25:16;;;;;;;0.10;0.10;;;;;;;16.27;52.40;101321.00;4969432;28;20491;-80
2023/10/24 06:27:45;;;;;;;0.20;0.20;;;;;;;16.32;52.56;101316.72;4971437;28;20383;-81
2023/10/24 06:30:19;;;;;;;0.20;0.20;;;;;;;16.39;52.56;101322.13;4974115;28;20396;-82
2023/10/24 06:32:44;;;;;;;0.10;0.10;;;;;;;16.48;52.74;101330.84;4969529;28;20462;-81
2023/10/24 06:35:15;;;;;;;0.10;0.10;;;;;;;16.56;52.45;101326.16;4957839;28;20823;-83
2023/10/24 06:37:42;;;;;;;0.10;0.10;;;;;;;16.58;52.62;101325.97;4972953;28;20416;-80
2023/10/24 06:40:13;;;;;;;0.10;0.10;;;;;;;16.61;52.68;101326.41;4973310;28;20388;-80
2023/10/24 06:42:40;;;;;;;0.40;0.40;;;;;;;16.62;52.94;101321.91;4957435;28;20396;-81
2023/10/24 06:45:10;;;;;;;0.15;0.15;;;;;;;16.66;52.98;101325.00;4953988;28;20493;-82
2023/10/24 06:47:36;;;;;;;0.10;0.10;;;;;;;16.71;52.94;101320.72;4970465;28;20478;-81
2023/10/24 06:50:04;;;;;;;0.30;0.30;;;;;;;16.84;52.82;101325.38;4989113;28;20491;-82
2023/10/24 06:52:35;;;;;;;0.10;0.10;;;;;;;16.87;52.75;101316.09;4974704;28;20391;-82
2023/10/24 06:55:03;;;;;;;0.30;0.30;;;;;;;16.94;52.68;101304.44;4973266;28;20410;-84
2023/10/24 06:57:40;;;;;;;0.10;0.10;;;;;;;17.07;52.32;101308.19;4973437;28;20431;-80
2023/10/24 07:00:08;;;;;;;0.08;0.08;;;;;;;17.17;52.33;101319.38;4955999;28;20400;-83
2023/10/24 07:02:34;;;;;;;0.20;0.20;;;;;;;17.21;52.10;101317.94;4972268;28;20398;-82
2023/10/24 07:05:00;;;;;;;0.10;0.10;;;;;;;17.15;52.43;101318.75;4975101;28;20395;-84
2023/10/24 07:07:26;;;;;;;0.20;0.20;;;;;;;17.24;52.35;101322.91;4973764;28;20392;-82
2023/10/24 07:09:54;;;;;;;0.10;0.10;;;;;;;17.28;52.12;101313.44;4975138;28;20403;-82
2023/10/24 07:12:22;;;;;;;0.10;0.10;;;;;;;17.25;52.37;101313.00;4975259;28;20387;-81
2023/10/24 07:14:52;;;;;;;0.20;0.20;;;;;;;17.35;52.33;101311.59;4973670;28;20384;-81
2023/10/24 07:17:17;;;;;;;0.10;0.10;;;;;;;17.45;52.29;101321.13;4973433;28;20400;-82
2023/10/24 07:19:43;;;;;;;0.10;0.10;;;;;;;17.54;52.01;101326.13;4974096;28;20438;-82
2023/10/24 07:22:09;;;;;;;0.10;0.10;;;;;;;17.60;52.02;101319.13;4989121;28;20846;-81
2023/10/24 07:24:34;;;;;;;0.30;0.20;;;;;;;17.70;52.03;101324.94;4989103;28;20384;-80
2023/10/24 07:27:00;;;;;;;0.10;0.10;;;;;;;17.76;51.95;101318.75;4973538;28;20490;-84
2023/10/24 07:29:27;;;;;;;0.10;0.10;;;;;;;17.87;51.77;101317.34;4974116;28;20717;-82
2023/10/24 07:31:53;;;;;;;0.10;0.10;;;;;;;18.01;51.38;101322.75;4973340;28;20402;-81
2023/10/24 07:34:18;;;;;;;0.20;0.20;;;;;;;18.06;51.29;101329.16;4973406;28;20399;-81
2023/10/24 07:36:44;;;;;;;0.10;0.10;;;;;;;18.08;51.25;101320.91;4952353;29;20428;-79
2023/10/24 07:39:10;;;;;;;0.20;0.20;;;;;;;18.19;50.89;101308.75;4952187;29;20389;-83
2023/10/24 07:41:35;;;;;;;0.30;0.30;;;;;;;18.23;50.81;101305.44;4952456;29;20401;-80
2023/10/24 07:44:01;;;;;;;0.10;0.10;;;;;;;18.25;50.96;101289.13;4936920;29;20419;-80
2023/10/24 07:46:26;;;;;;;0.10;0.10;;;;;;;18.42;50.75;101292.19;4956601;29;20417;-83
2023/10/24 07:48:52;;;;;;;0.10;0.10;;;;;;;18.62;50.24;101297.53;4936222;29;21083;-84
2023/10/24 07:51:19;;;;;;;0.10;0.10;;;;;;;18.75;50.02;101288.66;4953026;29;20837;-83
2023/10/24 07:53:49;;;;;;;0.30;0.30;;;;;;;18.81;49.80;101293.19;4949427;29;20396;-83
2023/10/24 07:56:15;;;;;;;0.00;0.00;;;;;;;18.91;49.75;101293.59;4937392;29;20382;-84
2023/10/24 07:58:48;;;;;;;0.17;0.17;;;;;;;18.97;49.45;101287.38;4938491;29;20397;-85
2023/10/24 08:01:23;;;;;;;0.10;0.10;;;;;;;19.01;49.38;101290.47;4936642;29;20420;-84
2023/10/24 08:03:54;;;;;;;0.25;0.25;;;;;;;19.04;49.23;101288.19;4938244;29;21003;-85
2023/10/24 08:06:21;;;;;;;0.10;0.10;;;;;;;19.09;49.24;101288.38;4958305;29;20417;-86
2023/10/24 08:08:54;;;;;;;0.20;0.20;;;;;;;19.21;49.11;101293.91;4982563;23;20439;-84
2023/10/24 08:11:25;;;;;;;0.10;0.10;;;;;;;19.36;49.06;101293.63;4974745;28;20474;-84
2023/10/24 08:13:51;;;;;;;0.10;0.10;;;;;;;19.42;49.13;101294.63;4973043;28;20826;-85
2023/10/24 08:16:20;;;;;;;0.10;0.10;;;;;;;19.50;48.73;101275.59;4990002;28;20934;-84
2023/10/24 08:18:48;;;;;;;0.10;0.10;;;;;;;19.56;48.73;101287.34;4974267;28;20867;-85
2023/10/24 08:21:14;;;;;;;0.20;0.20;;;;;;;19.67;48.57;101281.25;4974406;28;20423;-85
2023/10/24 08:23:42;;;;;;;0.20;0.20;;;;;;;19.73;48.05;101276.88;4974968;28;20412;-84
2023/10/24 08:26:15;;;;;;;0.10;0.10;;;;;;;19.75;47.93;101272.13;4975144;28;20408;-86
2023/10/24 08:28:47;;;;;;;0.15;0.15;;;;;;;19.83;47.64;101266.50;4974206;28;20430;-85
2023/10/24 08:31:18;;;;;;;0.13;0.13;;;;;;;19.93;47.48;101269.50;4991808;28;20838;-85
2023/10/24 08:33:46;;;;;;;0.55;0.55;;;;;;;19.82;47.29;101262.97;4974417;28;20398;-85
2023/10/24 08:36:15;;;;;;;0.45;0.45;;;;;;;19.90;47.24;101261.06;4991358;28;20430;-85
2023/10/24 08:38:46;;;;;;;0.13;0.13;;;;;;;20.04;47.13;101263.44;4973784;28;20782;-86
2023/10/24 08:41:14;;;;;;;0.15;0.15;;;;;;;20.02;47.02;101248.53;4972621;28;20921;-86
2023/10/24 08:43:41;;;;;;;0.13;0.13;;;;;;;20.11;47.10;101251.78;4972100;28;20384;-88
2023/10/24 08:46:10;;;;;;;0.60;0.60;;;;;;;20.20;46.89;101248.63;4956837;28;20411;-85
2023/10/24 08:48:39;;;;;;;0.10;0.10;;;;;;;20.34;46.99;101251.16;4958454;28;20875;-84
2023/10/24 08:51:05;;;;;;;0.40;0.40;;;;;;;20.37;46.66;101256.13;4975004;28;20411;-87
2023/10/24 08:53:34;;;;;;;0.43;0.43;;;;;;;20.26;46.91;101244.22;4991754;28;20974;-85
2023/10/24 08:56:03;;;;;;;0.73;0.73;;;;;;;20.48;46.65;101250.00;4973600;28;20402;-85
2023/10/24 08:58:36;;;;;;;0.20;0.20;;;;;;;20.55;46.11;101256.13;4991533;28;20845;-85
2023/10/24 09:01:08;;;;;;;0.98;0.52;;;;;;;20.58;46.10;101246.78;4975535;28;20391;-86
2023/10/24 09:03:42;;;;;;;0.60;0.60;;;;;;;20.63;45.95;101241.56;4973121;28;20427;-85
2023/10/24 09:06:14;;;;;;;0.52;0.52;;;;;;;20.77;45.60;101250.34;4978990;28;20423;-86
2023/10/24 09:08:42;;;;;;;0.20;0.20;;;;;;;20.81;45.48;101235.38;4959102;28;20407;-85
2023/10/24 09:11:07;;;;;;;0.20;0.20;;;;;;;20.80;45.28;101241.81;4975200;28;20391;-86
2023/10/24 09:13:40;;;;;;;0.50;0.50;;;;;;;20.85;45.06;101239.28;4973785;28;20392;-85
2023/10/24 09:16:07;;;;;;;0.40;0.40;;;;;;;20.98;44.67;101235.59;4973920;28;20423;-85
2023/10/24 09:18:38;;;;;;;0.20;0.20;;;;;;;21.15;44.70;101227.69;4975577;28;20474;-85
2023/10/24 09:21:08;;;;;;;0.20;0.20;;;;;;;21.29;44.78;101217.56;4974442;28;20457;-85
2023/10/24 09:23:42;;;;;;;0.30;0.30;;;;;;;21.36;44.40;101213.69;4990966;28;20423;-84
2023/10/24 09:26:13;;;;;;;0.10;0.10;;;;;;;21.45;44.28;101203.44;4994700;28;20422;-87
2023/10/24 09:28:40;;;;;;;0.60;0.50;;;;;;;21.55;43.94;101205.56;4976486;28;20392;-87
2023/10/24 09:31:11;;;;;;;0.60;0.60;;;;;;;21.32;44.00;101196.34;4967750;28;20424;-84
2023/10/24 09:33:37;;;;;;;0.40;0.30;;;;;;;21.56;43.82;101199.13;4983170;28;20498;-85
2023/10/24 09:36:08;;;;;;;0.10;0.10;;;;;;;21.71;43.67;101193.28;4973823;28;20396;-85
2023/10/24 09:38:36;;;;;;;0.30;0.30;;;;;;;21.85;43.48;101192.00;4973599;28;20400;-85
2023/10/24 09:41:14;;;;;;;0.70;0.70;;;;;;;22.01;43.37;101189.69;4975892;28;20419;-86
2023/10/24 09:43:50;;;;;;;0.20;0.20;;;;;;;21.99;42.77;101184.53;4960116;28;20395;-86
2023/10/24 09:46:20;;;;;;;0.13;0.13;;;;;;;22.16;42.70;101181.94;4992810;28;20411;-86
2023/10/24 09:48:52;;;;;;;0.10;0.10;;;;;;;22.11;42.50;101166.44;4962748;28;20396;-85
2023/10/24 09:51:22;;;;;;;3.15;1.05;;;;;;;22.15;42.51;101154.09;4977540;28;20396;-85
2023/10/24 09:53:55;;;;;;;0.10;0.10;;;;;;;22.23;42.11;101161.03;4978271;28;20469;-85
2023/10/24 09:56:27;;;;;;;0.30;0.30;;;;;;;22.24;41.89;101157.28;4978182;28;20398;-88
2023/10/24 09:59:01;;;;;;;0.17;0.17;;;;;;;22.37;41.96;101158.13;4979748;28;20791;-85
2023/10/24 10:01:31;;;;;;;19.20;1.10;;;;;;;22.40;41.81;101142.25;4977789;28;20407;-88
2023/10/24 10:04:01;;;;;;;0.10;0.10;;;;;;;22.53;41.84;101141.16;4992482;28;20392;-86
2023/10/24 10:06:27;;;;;;;0.40;0.40;;;;;;;22.72;41.78;101139.09;4960513;28;20874;-87
2023/10/24 10:09:00;;;;;;;0.22;0.22;;;;;;;22.88;41.59;101127.50;4947579;29;20413;-87
2023/10/24 10:11:32;;;;;;;0.10;0.10;;;;;;;22.86;41.06;101126.13;4963059;29;20934;-87
2023/10/24 10:14:13;;;;;;;0.13;0.13;;;;;;;22.78;40.90;101131.88;4963291;29;20393;-88
2023/10/24 10:17:07;;;;;;;0.20;0.20;;;;;;;22.88;41.04;101113.16;4958201;29;20397;-84
2023/10/24 10:20:00;;;;;;;0.20;0.20;;;;;;;22.96;40.57;101103.84;4956713;29;20468;-85
2023/10/24 10:22:26;;;;;;;0.10;0.10;;;;;;;23.07;40.64;101103.81;4956705;29;20440;-86
2023/10/24 10:25:20;;;;;;;0.10;0.10;;;;;;;23.21;40.75;101111.59;4940733;29;20382;-86
2023/10/24 10:28:05;;;;;;;0.10;0.10;;;;;;;23.28;40.21;101096.03;4942012;29;20405;-85
2023/10/24 10:30:50;;;;;;;0.30;0.30;;;;;;;23.38;40.00;101084.56;4940244;29;20393;-85
2023/10/24 10:33:20;;;;;;;0.10;0.10;;;;;;;23.51;39.86;101088.84;4940418;29;20401;-86
2023/10/24 10:36:14;;;;;;;0.43;0.43;;;;;;;23.45;39.97;101088.75;4942728;29;20416;-87
2023/10/24 10:38:49;;;;;;;0.30;0.30;;;;;;;23.50;40.23;101092.59;4941486;29;20940;-85
2023/10/24 10:41:24;;;;;;;0.20;0.20;;;;;;;23.61;40.23;101092.50;4926049;29;20865;-86
2023/10/24 10:44:02;;;;;;;0.17;0.17;;;;;;;23.64;39.72;101081.19;4955483;29;20392;-87
2023/10/24 10:46:32;;;;;;;0.10;0.10;;;;;;;23.74;39.57;101075.09;4946732;29;20425;-83
2023/10/24 10:49:06;;;;;;;0.20;0.20;;;;;;;23.75;39.56;101070.50;4939377;29;20426;-86
2023/10/24 10:51:33;;;;;;;0.20;0.20;;;;;;;23.82;39.25;101057.63;4940808;29;20418;-85
2023/10/24 10:54:21;;;;;;;0.22;0.22;;;;;;;23.93;38.84;101064.00;4954047;29;20433;-86
2023/10/24 10:56:49;;;;;;;3.00;2.60;;;;;;;24.11;38.78;101061.00;4940144;29;20402;-86
2023/10/24 10:59:46;;;;;;;0.20;0.20;;;;;;;24.20;38.57;101053.22;4924165;29;20509;-85
2023/10/24 11:02:32;;;;;;;0.25;0.25;;;;;;;24.17;38.45;101054.56;4955272;29;20399;-84
2023/10/24 11:05:01;;;;;;;0.20;0.20;;;;;;;24.19;38.58;101049.72;4939070;29;20470;-84
2023/10/24 11:07:59;;;;;;;0.17;0.17;;;;;;;24.29;38.54;101049.03;4952196;29;20411;-84
2023/10/24 11:10:57;;;;;;;0.50;0.43;;;;;;;24.41;38.55;101032.63;4970402;28;20423;-85
2023/10/24 11:13:51;;;;;;;1.93;0.63;;;;;;;24.41;38.41;101022.59;4976593;28;20475;-85
2023/10/24 11:16:21;;;;;;;0.40;0.20;;;;;;;24.42;38.44;101005.28;4975859;28;20405;-85
2023/10/24 11:18:47;;;;;;;0.20;0.20;;;;;;;24.50;38.69;101003.97;4979537;28;20396;-84
2023/10/24 11:21:16;;;;;;;0.10;0.10;;;;;;;24.52;38.20;101001.03;4976001;28;20395;-85
2023/10/24 11:23:53;;;;;;;0.10;0.10;;;;;;;24.54;38.03;100999.75;4978989;28;20411;-85
2023/10/24 11:26:26;;;;;;;0.40;0.40;;;;;;;24.56;38.00;100997.59;4979142;28;20938;-86
2023/10/24 11:28:55;;;;;;;0.90;0.60;;;;;;;24.61;37.68;100986.81;4978963;28;20388;-85
2023/10/24 11:31:23;;;;;;;0.40;0.35;;;;;;;24.63;37.59;100991.94;4978019;28;20450;-85